createdAt,value
2023-04-18T00:00:00.274Z,953.00
2023-04-18T00:01:00.255Z,955.00
2023-04-18T00:02:00.382Z,954.00
2023-04-18T00:03:03.282Z,951.00
2023-04-18T00:03:59.496Z,947.00
2023-04-18T00:04:59.365Z,946.00
2023-04-18T00:06:00.257Z,946.00
2023-04-18T00:06:59.259Z,943.00
2023-04-18T00:07:59.224Z,940.00
2023-04-18T00:09:00.239Z,941.00
2023-04-18T00:09:59.424Z,944.00
2023-04-18T00:10:59.557Z,946.00
2023-04-18T00:12:00.684Z,945.00
2023-04-18T00:12:59.338Z,941.00
2023-04-18T00:13:59.298Z,942.00
2023-04-18T00:15:00.789Z,943.00
2023-04-18T00:16:00.168Z,941.00
2023-04-18T00:17:00.230Z,939.00
2023-04-18T00:18:00.284Z,938.00
2023-04-18T00:19:00.175Z,939.00
2023-04-18T00:20:00.147Z,936.00
2023-04-18T00:21:00.162Z,937.00
2023-04-18T00:22:00.158Z,937.00
2023-04-18T00:22:59.126Z,935.00
2023-04-18T00:23:59.123Z,932.00
2023-04-18T00:25:00.119Z,932.00
2023-04-18T00:26:00.128Z,930.00
2023-04-18T00:26:59.129Z,931.00
2023-04-18T00:28:00.141Z,931.00
2023-04-18T00:28:59.074Z,929.00
2023-04-18T00:30:00.106Z,928.00
2023-04-18T00:30:59.133Z,926.00
2023-04-18T00:32:00.094Z,925.00
2023-04-18T00:33:00.172Z,926.00
2023-04-18T00:34:00.091Z,926.00
2023-04-18T00:34:59.036Z,923.00
2023-04-18T00:35:59.048Z,923.00
2023-04-18T00:37:00.027Z,922.00
2023-04-18T00:38:00.027Z,921.00
2023-04-18T00:39:00.028Z,921.00
2023-04-18T00:39:59.994Z,919.00
2023-04-18T00:40:58.984Z,918.00
2023-04-18T00:41:58.992Z,920.00
2023-04-18T00:42:58.991Z,918.00
2023-04-18T00:43:58.978Z,914.00
2023-04-18T00:44:58.981Z,911.00
2023-04-18T00:45:59.986Z,907.00
2023-04-18T00:46:58.940Z,907.00
2023-04-18T00:47:59.961Z,909.00
2023-04-18T00:48:59.938Z,912.00
2023-04-18T00:49:59.986Z,911.00
2023-04-18T00:50:59.950Z,910.00
2023-04-18T00:51:59.911Z,911.00
2023-04-18T00:52:59.917Z,913.00
2023-04-18T00:53:59.220Z,911.00
2023-04-18T00:55:00.204Z,912.00
2023-04-18T00:56:00.302Z,909.00
2023-04-18T00:56:58.887Z,908.00
2023-04-18T00:57:59.898Z,907.00
2023-04-18T00:58:58.854Z,906.00
2023-04-18T00:59:59.886Z,906.00
2023-04-18T01:00:59.854Z,905.00
2023-04-18T01:01:59.002Z,905.00
2023-04-18T01:02:59.020Z,905.00
2023-04-18T01:03:58.905Z,902.00
2023-04-18T01:04:59.863Z,903.00
2023-04-18T01:05:58.907Z,905.00
2023-04-18T01:06:58.873Z,903.00
2023-04-18T01:07:58.919Z,902.00
2023-04-18T01:08:59.240Z,902.00
2023-04-18T01:09:59.015Z,903.00
2023-04-18T01:10:59.096Z,906.00
2023-04-18T01:12:00.045Z,904.00
2023-04-18T01:13:00.210Z,905.00
2023-04-18T01:13:59.085Z,903.00
2023-04-18T01:15:00.060Z,902.00
2023-04-18T01:16:00.299Z,900.00
2023-04-18T01:17:00.055Z,896.00
2023-04-18T01:18:00.208Z,894.00
2023-04-18T01:19:00.213Z,894.00
2023-04-18T01:20:00.259Z,893.00
2023-04-18T01:21:00.077Z,892.00
2023-04-18T01:22:00.368Z,890.00
2023-04-18T01:22:59.929Z,889.00
2023-04-18T01:23:59.922Z,891.00
2023-04-18T01:24:59.922Z,892.00
2023-04-18T01:25:59.949Z,894.00
2023-04-18T01:26:59.925Z,892.00
2023-04-18T01:27:58.933Z,892.00
2023-04-18T01:28:59.960Z,890.00
2023-04-18T01:29:59.923Z,887.00
2023-04-18T01:30:59.931Z,884.00
2023-04-18T01:31:58.922Z,882.00
2023-04-18T01:32:58.947Z,882.00
2023-04-18T01:33:59.935Z,880.00
2023-04-18T01:35:00.222Z,877.00
2023-04-18T01:36:00.080Z,879.00
2023-04-18T01:37:00.286Z,878.00
2023-04-18T01:38:00.853Z,879.00
2023-04-18T01:39:00.194Z,881.00
2023-04-18T01:40:00.210Z,881.00
2023-04-18T01:41:00.193Z,884.00
2023-04-18T01:42:00.212Z,883.00
2023-04-18T01:43:00.065Z,883.00
2023-04-18T01:44:00.538Z,880.00
2023-04-18T01:45:00.385Z,877.00
2023-04-18T01:45:59.998Z,876.00
2023-04-18T01:46:59.044Z,876.00
2023-04-18T01:47:59.048Z,876.00
2023-04-18T01:49:00.018Z,877.00
2023-04-18T01:49:59.990Z,878.00
2023-04-18T01:50:58.990Z,875.00
2023-04-18T01:52:00.047Z,874.00
2023-04-18T01:52:59.988Z,873.00
2023-04-18T01:53:59.326Z,872.00
2023-04-18T01:54:59.969Z,873.00
2023-04-18T01:55:58.974Z,871.00
2023-04-18T01:56:58.985Z,872.00
2023-04-18T01:57:58.962Z,868.00
2023-04-18T01:58:59.970Z,866.00
2023-04-18T01:59:59.982Z,863.00
2023-04-18T02:01:00.057Z,861.00
2023-04-18T02:02:00.104Z,859.00
2023-04-18T02:03:00.541Z,858.00
2023-04-18T02:03:59.565Z,857.00
2023-04-18T02:05:00.118Z,858.00
2023-04-18T02:05:59.063Z,859.00
2023-04-18T02:07:00.070Z,858.00
2023-04-18T02:08:00.051Z,860.00
2023-04-18T02:09:00.043Z,859.00
2023-04-18T02:10:00.085Z,860.00
2023-04-18T02:11:00.065Z,859.00
2023-04-18T02:12:00.021Z,854.00
2023-04-18T02:12:59.013Z,853.00
2023-04-18T02:14:00.078Z,851.00
2023-04-18T02:15:00.000Z,854.00
2023-04-18T02:16:00.072Z,854.00
2023-04-18T02:16:59.048Z,854.00
2023-04-18T02:17:58.988Z,851.00
2023-04-18T02:18:59.975Z,850.00
2023-04-18T02:19:58.967Z,851.00
2023-04-18T02:20:59.956Z,850.00
2023-04-18T02:21:59.964Z,850.00
2023-04-18T02:22:59.940Z,849.00
2023-04-18T02:23:59.951Z,849.00
2023-04-18T02:24:59.942Z,852.00
2023-04-18T02:25:59.933Z,851.00
2023-04-18T02:26:59.918Z,850.00
2023-04-18T02:28:00.005Z,852.00
2023-04-18T02:28:58.961Z,853.00
2023-04-18T02:29:59.915Z,853.00
2023-04-18T02:30:59.900Z,854.00
2023-04-18T02:32:00.005Z,856.00
2023-04-18T02:33:00.078Z,856.00
2023-04-18T02:33:59.109Z,856.00
2023-04-18T02:35:00.443Z,851.00
2023-04-18T02:35:59.483Z,851.00
2023-04-18T02:37:00.853Z,851.00
2023-04-18T02:38:00.000Z,848.00
2023-04-18T02:38:59.707Z,846.00
2023-04-18T02:40:00.879Z,844.00
2023-04-18T02:41:00.973Z,843.00
2023-04-18T02:41:59.757Z,842.00
2023-04-18T02:43:00.783Z,842.00
2023-04-18T02:44:01.221Z,840.00
2023-04-18T02:45:01.202Z,841.00
2023-04-18T02:46:00.024Z,844.00
2023-04-18T02:47:00.798Z,840.00
2023-04-18T02:48:01.221Z,841.00
2023-04-18T02:49:01.162Z,841.00
2023-04-18T02:50:00.559Z,841.00
2023-04-18T02:51:00.990Z,838.00
2023-04-18T02:52:01.481Z,838.00
2023-04-18T02:53:01.272Z,836.00
2023-04-18T02:54:01.179Z,836.00
2023-04-18T02:55:01.497Z,835.00
2023-04-18T02:56:01.527Z,835.00
2023-04-18T02:57:01.410Z,835.00
2023-04-18T02:58:01.834Z,836.00
2023-04-18T02:59:00.751Z,834.00
2023-04-18T03:00:01.658Z,835.00
2023-04-18T03:01:01.715Z,831.00
2023-04-18T03:02:01.860Z,829.00
2023-04-18T03:03:01.838Z,827.00
2023-04-18T03:04:01.254Z,827.00
2023-04-18T03:05:01.365Z,826.00
2023-04-18T03:06:01.346Z,828.00
2023-04-18T03:07:00.437Z,831.00
2023-04-18T03:08:01.458Z,832.00
2023-04-18T03:09:01.470Z,828.00
2023-04-18T03:10:00.539Z,824.00
2023-04-18T03:11:00.556Z,822.00
2023-04-18T03:12:01.604Z,819.00
2023-04-18T03:13:01.755Z,820.00
2023-04-18T03:14:01.786Z,821.00
2023-04-18T03:15:01.752Z,822.00
2023-04-18T03:16:01.805Z,823.00
2023-04-18T03:17:01.848Z,825.00
2023-04-18T03:18:00.960Z,826.00
2023-04-18T03:19:00.944Z,828.00
2023-04-18T03:20:01.010Z,826.00
2023-04-18T03:21:02.121Z,824.00
2023-04-18T03:22:01.084Z,824.00
2023-04-18T03:23:01.454Z,826.00
2023-04-18T03:24:02.393Z,824.00
2023-04-18T03:25:02.207Z,824.00
2023-04-18T03:26:01.269Z,825.00
2023-04-18T03:27:01.308Z,824.00
2023-04-18T03:28:02.364Z,821.00
2023-04-18T03:29:02.413Z,819.00
2023-04-18T03:30:02.451Z,819.00
2023-04-18T03:31:02.527Z,821.00
2023-04-18T03:32:02.539Z,822.00
2023-04-18T03:33:02.743Z,819.00
2023-04-18T03:34:01.647Z,819.00
2023-04-18T03:35:02.665Z,815.00
2023-04-18T03:36:01.726Z,812.00
2023-04-18T03:37:02.814Z,813.00
2023-04-18T03:38:01.818Z,813.00
2023-04-18T03:39:02.877Z,813.00
2023-04-18T03:40:02.914Z,814.00
2023-04-18T03:41:02.973Z,811.00
2023-04-18T03:42:03.009Z,810.00
2023-04-18T03:43:02.042Z,806.00
2023-04-18T03:44:02.113Z,808.00
2023-04-18T03:45:02.119Z,808.00
2023-04-18T03:46:02.266Z,810.00
2023-04-18T03:47:03.189Z,810.00
2023-04-18T03:48:03.339Z,810.00
2023-04-18T03:49:03.321Z,811.00
2023-04-18T03:50:03.335Z,813.00
2023-04-18T03:51:02.381Z,810.00
2023-04-18T03:52:03.433Z,810.00
2023-04-18T03:53:03.455Z,809.00
2023-04-18T03:54:03.523Z,805.00
2023-04-18T03:55:03.573Z,803.00
2023-04-18T03:56:03.614Z,804.00
2023-04-18T03:57:03.641Z,804.00
2023-04-18T03:58:02.686Z,805.00
2023-04-18T03:59:02.716Z,807.00
2023-04-18T04:00:02.754Z,804.00
2023-04-18T04:01:03.812Z,804.00
2023-04-18T04:02:04.172Z,801.00
2023-04-18T04:03:04.325Z,800.00
2023-04-18T04:04:04.686Z,797.00
2023-04-18T04:05:04.427Z,797.00
2023-04-18T04:06:04.226Z,795.00
2023-04-18T04:07:03.167Z,796.00
2023-04-18T04:08:04.130Z,794.00
2023-04-18T04:09:03.139Z,791.00
2023-04-18T04:10:04.356Z,790.00
2023-04-18T04:11:04.210Z,790.00
2023-04-18T04:12:04.151Z,789.00
2023-04-18T04:13:04.838Z,790.00
2023-04-18T04:14:03.441Z,791.00
2023-04-18T04:15:04.409Z,791.00
2023-04-18T04:16:03.446Z,789.00
2023-04-18T04:17:04.678Z,789.00
2023-04-18T04:18:04.669Z,786.00
2023-04-18T04:19:04.413Z,786.00
2023-04-18T04:20:04.727Z,786.00
2023-04-18T04:21:04.407Z,785.00
2023-04-18T04:22:04.625Z,785.00
2023-04-18T04:23:04.634Z,786.00
2023-04-18T04:24:03.675Z,783.00
2023-04-18T04:25:03.714Z,781.00
2023-04-18T04:26:04.564Z,784.00
2023-04-18T04:27:03.601Z,784.00
2023-04-18T04:28:03.781Z,787.00
2023-04-18T04:29:05.289Z,785.00
2023-04-18T04:30:03.714Z,783.00
2023-04-18T04:31:03.596Z,780.00
2023-04-18T04:32:04.027Z,782.00
2023-04-18T04:33:04.743Z,782.00
2023-04-18T04:34:04.081Z,780.00
2023-04-18T04:35:03.332Z,777.00
2023-04-18T04:36:03.329Z,776.00
2023-04-18T04:37:03.307Z,777.00
2023-04-18T04:38:04.328Z,779.00
2023-04-18T04:39:03.297Z,776.00
2023-04-18T04:40:04.280Z,773.00
2023-04-18T04:41:03.314Z,772.00
2023-04-18T04:42:04.277Z,770.00
2023-04-18T04:43:04.257Z,773.00
2023-04-18T04:44:04.262Z,772.00
2023-04-18T04:45:03.374Z,772.00
2023-04-18T04:46:04.352Z,773.00
2023-04-18T04:47:03.241Z,771.00
2023-04-18T04:48:03.412Z,771.00
2023-04-18T04:49:04.290Z,771.00
2023-04-18T04:50:04.358Z,769.00
2023-04-18T04:51:04.364Z,771.00
2023-04-18T04:52:04.446Z,769.00
2023-04-18T04:53:04.457Z,770.00
2023-04-18T04:54:04.515Z,769.00
2023-04-18T04:55:04.532Z,769.00
2023-04-18T04:56:04.579Z,768.00
2023-04-18T04:57:04.641Z,768.00
2023-04-18T04:58:04.757Z,768.00
2023-04-18T04:59:04.720Z,767.00
2023-04-18T05:00:04.754Z,768.00
2023-04-18T05:01:03.842Z,768.00
2023-04-18T05:02:03.915Z,771.00
2023-04-18T05:03:03.951Z,770.00
2023-04-18T05:04:05.013Z,771.00
2023-04-18T05:05:05.143Z,771.00
2023-04-18T05:06:05.005Z,768.00
2023-04-18T05:07:05.015Z,767.00
2023-04-18T05:08:05.147Z,767.00
2023-04-18T05:09:04.136Z,768.00
2023-04-18T05:10:04.164Z,768.00
2023-04-18T05:11:04.190Z,768.00
2023-04-18T05:12:05.245Z,768.00
2023-04-18T05:13:05.268Z,770.00
2023-04-18T05:14:05.324Z,770.00
2023-04-18T05:15:05.389Z,769.00
2023-04-18T05:16:04.402Z,765.00
2023-04-18T05:17:04.489Z,763.00
2023-04-18T05:18:04.501Z,757.00
2023-04-18T05:19:05.509Z,757.00
2023-04-18T05:20:05.570Z,756.00
2023-04-18T05:21:04.601Z,755.00
2023-04-18T05:22:04.651Z,756.00
2023-04-18T05:23:04.663Z,753.00
2023-04-18T05:24:04.731Z,755.00
2023-04-18T05:25:04.808Z,758.00
2023-04-18T05:26:04.784Z,758.00
2023-04-18T05:27:05.891Z,768.00
2023-04-18T05:28:04.851Z,806.00
2023-04-18T05:29:05.934Z,813.00
2023-04-18T05:30:05.927Z,811.00
2023-04-18T05:31:06.013Z,816.00
2023-04-18T05:32:06.011Z,822.00
2023-04-18T05:33:05.151Z,871.00
2023-04-18T05:34:05.124Z,876.00
2023-04-18T05:35:06.117Z,889.00
2023-04-18T05:36:06.158Z,913.00
2023-04-18T05:37:07.740Z,936.00
2023-04-18T05:38:06.170Z,982.00
2023-04-18T05:39:06.174Z,984.00
2023-04-18T05:40:05.126Z,984.00
2023-04-18T05:41:05.144Z,982.00
2023-04-18T05:42:06.121Z,989.00
2023-04-18T05:43:06.102Z,998.00
2023-04-18T05:44:06.360Z,1087.00
2023-04-18T05:45:05.123Z,1083.00
2023-04-18T05:46:05.091Z,1179.00
2023-04-18T05:47:06.104Z,1206.00
2023-04-18T05:48:06.100Z,1233.00
2023-04-18T05:49:06.120Z,1316.00
2023-04-18T05:50:06.075Z,1338.00
2023-04-18T05:51:05.201Z,1367.00
2023-04-18T05:52:06.085Z,1386.00
2023-04-18T05:53:06.967Z,1402.00
2023-04-18T05:54:06.147Z,1430.00
2023-04-18T05:55:05.035Z,1479.00
2023-04-18T05:56:06.085Z,1497.00
2023-04-18T05:57:06.334Z,1512.00
2023-04-18T05:58:07.393Z,1536.00
2023-04-18T05:59:05.033Z,1624.00
2023-04-18T06:00:06.039Z,1705.00
2023-04-18T06:01:12.172Z,1690.00
2023-04-18T06:02:04.986Z,1694.00
2023-04-18T06:03:08.564Z,1733.00
2023-04-18T06:04:06.134Z,1755.00
2023-04-18T06:05:06.070Z,1749.00
2023-04-18T06:06:05.958Z,1721.00
2023-04-18T06:07:04.948Z,1705.00
2023-04-18T06:08:05.945Z,1710.00
2023-04-18T06:09:05.923Z,1719.00
2023-04-18T06:10:05.985Z,1718.00
2023-04-18T06:11:04.954Z,1740.00
2023-04-18T06:12:05.902Z,1772.00
2023-04-18T06:13:05.930Z,1785.00
2023-04-18T06:14:04.996Z,1789.00
2023-04-18T06:15:05.021Z,1794.00
2023-04-18T06:16:06.205Z,1803.00
2023-04-18T06:17:06.141Z,1815.00
2023-04-18T06:18:06.227Z,1824.00
2023-04-18T06:19:05.333Z,1851.00
2023-04-18T06:20:05.275Z,1896.00
2023-04-18T06:21:05.333Z,1895.00
2023-04-18T06:22:06.378Z,1912.00
2023-04-18T06:23:06.405Z,1924.00
2023-04-18T06:24:06.431Z,1937.00
2023-04-18T06:25:05.437Z,1942.00
2023-04-18T06:26:06.507Z,1948.00
2023-04-18T06:27:05.528Z,1970.00
2023-04-18T06:28:06.567Z,1976.00
2023-04-18T06:29:06.574Z,2008.00
2023-04-18T06:30:05.580Z,2035.00
2023-04-18T06:31:05.661Z,2048.00
2023-04-18T06:32:06.693Z,2068.00
2023-04-18T06:33:06.673Z,2086.00
2023-04-18T06:34:05.655Z,2092.00
2023-04-18T06:35:06.678Z,2098.00
2023-04-18T06:36:06.685Z,2109.00
2023-04-18T06:37:06.698Z,2115.00
2023-04-18T06:38:06.725Z,2128.00
2023-04-18T06:39:06.757Z,2135.00
2023-04-18T06:40:05.755Z,2142.00
2023-04-18T06:41:06.802Z,2146.00
2023-04-18T06:42:06.802Z,2159.00
2023-04-18T06:43:06.773Z,2168.00
2023-04-18T06:44:06.794Z,2179.00
2023-04-18T06:45:05.806Z,2187.00
2023-04-18T06:46:06.010Z,2175.00
2023-04-18T06:47:06.893Z,2142.00
2023-04-18T06:48:06.958Z,2137.00
2023-04-18T06:49:07.056Z,2109.00
2023-04-18T06:50:06.031Z,2096.00
2023-04-18T06:51:07.113Z,2087.00
2023-04-18T06:52:07.147Z,1683.00
2023-04-18T06:53:07.177Z,1245.00
2023-04-18T06:54:07.202Z,1176.00
2023-04-18T06:55:07.245Z,1100.00
2023-04-18T06:56:07.685Z,1367.00
2023-04-18T06:57:07.321Z,1327.00
2023-04-18T06:58:06.487Z,1579.00
2023-04-18T06:59:07.334Z,1562.00
2023-04-18T07:00:07.378Z,1562.00
2023-04-18T07:01:06.449Z,1553.00
2023-04-18T07:02:06.479Z,1549.00
2023-04-18T07:03:10.343Z,1544.00
2023-04-18T07:04:06.612Z,1538.00
2023-04-18T07:05:07.520Z,1527.00
2023-04-18T07:06:07.517Z,1523.00
2023-04-18T07:07:07.491Z,1520.00
2023-04-18T07:08:07.508Z,1512.00
2023-04-18T07:09:06.475Z,1505.00
2023-04-18T07:10:07.849Z,1502.00
2023-04-18T07:11:07.556Z,1499.00
2023-04-18T07:12:07.455Z,1496.00
2023-04-18T07:13:07.440Z,1490.00
2023-04-18T07:14:06.554Z,1485.00
2023-04-18T07:15:07.484Z,1477.00
2023-04-18T07:16:07.458Z,1470.00
2023-04-18T07:17:06.559Z,1462.00
2023-04-18T07:18:07.483Z,1453.00
2023-04-18T07:19:06.411Z,1448.00
2023-04-18T07:20:06.413Z,1442.00
2023-04-18T07:21:07.845Z,1439.00
2023-04-18T07:22:07.385Z,1434.00
2023-04-18T07:23:07.385Z,1429.00
2023-04-18T07:24:07.478Z,1426.00
2023-04-18T07:25:06.390Z,1420.00
2023-04-18T07:26:07.376Z,1409.00
2023-04-18T07:27:07.352Z,1407.00
2023-04-18T07:28:06.364Z,1402.00
2023-04-18T07:29:06.326Z,1396.00
2023-04-18T07:30:06.500Z,1395.00
2023-04-18T07:31:06.373Z,1404.00
2023-04-18T07:32:08.461Z,1419.00
2023-04-18T07:33:07.317Z,1428.00
2023-04-18T07:34:07.314Z,1439.00
2023-04-18T07:35:07.349Z,1485.00
2023-04-18T07:36:07.377Z,1508.00
2023-04-18T07:37:07.447Z,1516.00
2023-04-18T07:38:07.431Z,1525.00
2023-04-18T07:39:06.452Z,1543.00
2023-04-18T07:40:07.466Z,1569.00
2023-04-18T07:41:06.467Z,1598.00
2023-04-18T07:42:07.464Z,1615.00
2023-04-18T07:43:06.463Z,1625.00
2023-04-18T07:44:07.463Z,1664.00
2023-04-18T07:45:07.475Z,1679.00
2023-04-18T07:46:07.733Z,1692.00
2023-04-18T07:47:07.468Z,1718.00
2023-04-18T07:48:07.541Z,1285.00
2023-04-18T07:49:06.540Z,1155.00
2023-04-18T07:50:06.652Z,1120.00
2023-04-18T07:51:07.709Z,1033.00
2023-04-18T07:52:07.617Z,1010.00
2023-04-18T07:53:07.626Z,975.00
2023-04-18T07:54:06.635Z,893.00
2023-04-18T07:55:07.657Z,880.00
2023-04-18T07:56:06.710Z,1014.00
2023-04-18T07:57:06.762Z,1196.00
2023-04-18T07:58:07.755Z,1305.00
2023-04-18T07:59:07.829Z,1338.00
2023-04-18T08:00:07.871Z,1345.00
2023-04-18T08:01:07.836Z,1357.00
2023-04-18T08:02:07.935Z,1369.00
2023-04-18T08:03:07.094Z,1392.00
2023-04-18T08:04:07.145Z,1456.00
2023-04-18T08:05:08.158Z,1483.00
2023-04-18T08:06:08.008Z,1500.00
2023-04-18T08:07:08.052Z,1520.00
2023-04-18T08:08:08.128Z,1546.00
2023-04-18T08:09:07.160Z,1593.00
2023-04-18T08:10:08.192Z,1595.00
2023-04-18T08:11:08.239Z,1595.00
2023-04-18T08:12:08.283Z,1612.00
2023-04-18T08:13:08.327Z,1697.00
2023-04-18T08:14:08.358Z,1704.00
2023-04-18T08:15:07.426Z,1709.00
2023-04-18T08:16:08.472Z,1778.00
2023-04-18T08:17:07.485Z,1782.00
2023-04-18T08:18:07.693Z,1794.00
2023-04-18T08:19:07.553Z,1805.00
2023-04-18T08:20:07.619Z,1827.00
2023-04-18T08:21:07.645Z,1849.00
2023-04-18T08:22:08.641Z,1856.00
2023-04-18T08:23:11.181Z,1934.00
2023-04-18T08:24:08.645Z,1926.00
2023-04-18T08:25:07.657Z,1937.00
2023-04-18T08:26:08.642Z,1951.00
2023-04-18T08:27:08.638Z,1963.00
2023-04-18T08:28:07.662Z,1974.00
2023-04-18T08:29:07.637Z,2017.00
2023-04-18T08:30:08.610Z,2044.00
2023-04-18T08:31:07.629Z,2056.00
2023-04-18T08:32:07.838Z,2089.00
2023-04-18T08:33:07.667Z,2102.00
2023-04-18T08:34:08.697Z,2135.00
2023-04-18T08:35:07.575Z,2153.00
2023-04-18T08:36:08.582Z,2174.00
2023-04-18T08:37:07.571Z,2208.00
2023-04-18T08:38:08.661Z,2233.00
2023-04-18T08:39:08.564Z,2259.00
2023-04-18T08:40:08.577Z,2303.00
2023-04-18T08:41:08.561Z,2319.00
2023-04-18T08:42:08.586Z,2355.00
2023-04-18T08:43:08.577Z,2372.00
2023-04-18T08:44:07.577Z,2394.00
2023-04-18T08:45:08.634Z,2403.00
2023-04-18T08:46:07.773Z,2455.00
2023-04-18T08:47:07.722Z,2462.00
2023-04-18T08:48:08.843Z,2489.00
2023-04-18T08:49:10.673Z,2543.00
2023-04-18T08:50:07.782Z,2561.00
2023-04-18T08:51:08.744Z,2636.00
2023-04-18T08:52:08.733Z,2296.00
2023-04-18T08:53:08.716Z,1923.00
2023-04-18T08:54:07.728Z,1728.00
2023-04-18T08:55:08.719Z,1470.00
2023-04-18T08:56:07.708Z,1310.00
2023-04-18T08:57:08.745Z,1309.00
2023-04-18T08:58:08.693Z,1651.00
2023-04-18T08:59:07.694Z,1741.00
2023-04-18T09:00:08.695Z,1752.00
2023-04-18T09:01:08.728Z,1556.00
2023-04-18T09:02:07.675Z,1321.00
2023-04-18T09:03:08.808Z,1295.00
2023-04-18T09:04:07.722Z,1439.00
2023-04-18T09:05:07.645Z,1446.00
2023-04-18T09:06:07.819Z,1584.00
2023-04-18T09:07:08.629Z,1614.00
2023-04-18T09:08:07.646Z,1621.00
2023-04-18T09:09:08.620Z,1619.00
2023-04-18T09:10:08.602Z,1618.00
2023-04-18T09:11:08.608Z,1617.00
2023-04-18T09:12:08.599Z,1609.00
2023-04-18T09:13:08.595Z,1598.00
2023-04-18T09:14:08.576Z,1582.00
2023-04-18T09:15:07.581Z,1574.00
2023-04-18T09:16:08.596Z,1538.00
2023-04-18T09:17:08.550Z,1518.00
2023-04-18T09:18:07.589Z,1510.00
2023-04-18T09:19:07.546Z,1506.00
2023-04-18T09:20:08.543Z,1502.00
2023-04-18T09:21:08.517Z,1509.00
2023-04-18T09:22:08.546Z,1512.00
2023-04-18T09:23:07.525Z,1514.00
2023-04-18T09:24:07.505Z,1514.00
2023-04-18T09:25:07.509Z,1513.00
2023-04-18T09:26:07.486Z,1517.00
2023-04-18T09:27:08.495Z,1520.00
2023-04-18T09:28:08.486Z,1522.00
2023-04-18T09:29:08.478Z,1519.00
2023-04-18T09:30:08.461Z,1520.00
2023-04-18T09:31:07.513Z,1515.00
2023-04-18T09:32:08.448Z,1512.00
2023-04-18T09:33:08.450Z,1491.00
2023-04-18T09:34:08.608Z,1485.00
2023-04-18T09:35:07.434Z,1475.00
2023-04-18T09:36:08.435Z,1462.00
2023-04-18T09:37:07.497Z,1456.00
2023-04-18T09:38:08.437Z,1449.00
2023-04-18T09:39:08.432Z,1441.00
2023-04-18T09:40:08.440Z,1431.00
2023-04-18T09:41:07.459Z,1419.00
2023-04-18T09:42:08.432Z,1422.00
2023-04-18T09:43:08.435Z,1414.00
2023-04-18T09:44:08.795Z,1415.00
2023-04-18T09:45:08.505Z,1416.00
2023-04-18T09:46:08.483Z,1304.00
2023-04-18T09:47:08.755Z,1206.00
2023-04-18T09:48:07.632Z,1204.00
2023-04-18T09:49:10.941Z,1173.00
2023-04-18T09:50:08.638Z,1270.00
2023-04-18T09:51:07.575Z,1261.00
2023-04-18T09:52:08.752Z,1264.00
2023-04-18T09:53:07.548Z,1273.00
2023-04-18T09:54:08.587Z,1271.00
2023-04-18T09:55:07.556Z,1272.00
2023-04-18T09:56:08.522Z,1267.00
2023-04-18T09:57:08.525Z,1259.00
2023-04-18T09:58:07.498Z,1250.00
2023-04-18T09:59:08.490Z,1244.00
2023-04-18T10:00:08.502Z,1238.00
2023-04-18T10:01:08.577Z,1230.00
2023-04-18T10:02:08.627Z,1225.00
2023-04-18T10:03:08.605Z,1219.00
2023-04-18T10:04:08.553Z,1211.00
2023-04-18T10:05:07.522Z,1204.00
2023-04-18T10:06:08.455Z,1198.00
2023-04-18T10:07:07.461Z,1191.00
2023-04-18T10:08:08.475Z,1182.00
2023-04-18T10:09:08.416Z,1170.00
2023-04-18T10:10:07.450Z,1158.00
2023-04-18T10:11:07.406Z,1152.00
2023-04-18T10:12:08.760Z,1144.00
2023-04-18T10:13:08.443Z,1140.00
2023-04-18T10:14:08.382Z,1135.00
2023-04-18T10:15:07.399Z,1131.00
2023-04-18T10:16:08.436Z,1128.00
2023-04-18T10:17:07.386Z,1123.00
2023-04-18T10:18:08.404Z,1116.00
2023-04-18T10:19:08.357Z,1110.00
2023-04-18T10:20:08.354Z,1105.00
2023-04-18T10:21:07.359Z,1099.00
2023-04-18T10:22:07.422Z,1089.00
2023-04-18T10:23:07.447Z,1079.00
2023-04-18T10:24:08.506Z,1073.00
2023-04-18T10:25:08.565Z,1066.00
2023-04-18T10:26:07.636Z,1063.00
2023-04-18T10:27:08.672Z,1057.00
2023-04-18T10:28:07.769Z,1049.00
2023-04-18T10:29:08.746Z,1039.00
2023-04-18T10:30:09.114Z,1031.00
2023-04-18T10:31:08.883Z,1021.00
2023-04-18T10:32:08.937Z,1017.00
2023-04-18T10:33:18.324Z,1011.00
2023-04-18T10:34:08.950Z,1002.00
2023-04-18T10:35:08.970Z,997.00
2023-04-18T10:36:08.940Z,990.00
2023-04-18T10:37:09.012Z,981.00
2023-04-18T10:38:08.936Z,972.00
2023-04-18T10:39:08.922Z,955.00
2023-04-18T10:40:08.922Z,951.00
2023-04-18T10:41:08.905Z,948.00
2023-04-18T10:42:08.298Z,907.00
2023-04-18T10:43:08.889Z,909.00
2023-04-18T10:44:09.153Z,926.00
2023-04-18T10:45:08.887Z,936.00
2023-04-18T10:46:14.338Z,924.00
2023-04-18T10:47:09.307Z,918.00
2023-04-18T10:48:08.887Z,915.00
2023-04-18T10:49:08.855Z,909.00
2023-04-18T10:50:08.856Z,912.00
2023-04-18T10:51:08.854Z,917.00
2023-04-18T10:52:08.831Z,924.00
2023-04-18T10:53:08.885Z,925.00
2023-04-18T10:54:07.816Z,921.00
2023-04-18T10:55:07.807Z,913.00
2023-04-18T10:56:08.841Z,909.00
2023-04-18T10:57:07.892Z,900.00
2023-04-18T10:58:08.990Z,888.00
2023-04-18T10:59:09.020Z,881.00
2023-04-18T11:00:09.108Z,866.00
2023-04-18T11:01:08.174Z,861.00
2023-04-18T11:02:09.260Z,791.00
2023-04-18T11:03:09.398Z,799.00
2023-04-18T11:04:09.464Z,799.00
2023-04-18T11:05:08.391Z,782.00
2023-04-18T11:06:08.475Z,749.00
2023-04-18T11:07:09.491Z,759.00
2023-04-18T11:08:08.500Z,751.00
2023-04-18T11:09:09.564Z,734.00
2023-04-18T11:10:08.583Z,704.00
2023-04-18T11:11:09.637Z,711.00
2023-04-18T11:12:09.660Z,663.00
2023-04-18T11:13:09.691Z,718.00
2023-04-18T11:14:09.893Z,698.00
2023-04-18T11:15:09.676Z,659.00
2023-04-18T11:16:09.731Z,618.00
2023-04-18T11:17:09.704Z,634.00
2023-04-18T11:18:09.755Z,625.00
2023-04-18T11:19:09.722Z,656.00
2023-04-18T11:20:09.730Z,677.00
2023-04-18T11:21:09.827Z,681.00
2023-04-18T11:22:09.786Z,694.00
2023-04-18T11:23:09.746Z,695.00
2023-04-18T11:24:09.752Z,694.00
2023-04-18T11:25:09.765Z,697.00
2023-04-18T11:26:09.797Z,700.00
2023-04-18T11:27:09.777Z,709.00
2023-04-18T11:28:09.783Z,717.00
2023-04-18T11:29:08.765Z,721.00
2023-04-18T11:30:09.852Z,726.00
2023-04-18T11:31:09.764Z,728.00
2023-04-18T11:32:09.819Z,727.00
2023-04-18T11:33:09.045Z,711.00
2023-04-18T11:34:09.757Z,716.00
2023-04-18T11:35:09.750Z,714.00
2023-04-18T11:36:09.748Z,712.00
2023-04-18T11:37:09.796Z,722.00
2023-04-18T11:38:09.769Z,725.00
2023-04-18T11:39:08.792Z,731.00
2023-04-18T11:40:09.778Z,739.00
2023-04-18T11:41:09.786Z,748.00
2023-04-18T11:42:09.856Z,743.00
2023-04-18T11:43:08.803Z,747.00
2023-04-18T11:44:08.782Z,732.00
2023-04-18T11:45:08.772Z,723.00
2023-04-18T11:46:09.011Z,730.00
2023-04-18T11:47:09.807Z,741.00
2023-04-18T11:48:08.854Z,750.00
2023-04-18T11:49:09.814Z,751.00
2023-04-18T11:50:08.822Z,758.00
2023-04-18T11:51:09.841Z,760.00
2023-04-18T11:52:09.889Z,760.00
2023-04-18T11:53:09.859Z,763.00
2023-04-18T11:54:09.878Z,756.00
2023-04-18T11:55:09.846Z,752.00
2023-04-18T11:56:09.862Z,754.00
2023-04-18T11:57:08.872Z,753.00
2023-04-18T11:58:08.889Z,739.00
2023-04-18T11:59:08.874Z,729.00
2023-04-18T12:00:09.866Z,729.00
2023-04-18T12:01:09.871Z,725.00
2023-04-18T12:03:11.187Z,715.00
2023-04-18T12:04:10.043Z,709.00
2023-04-18T12:05:10.346Z,699.00
2023-04-18T12:06:09.902Z,693.00
2023-04-18T12:07:08.855Z,695.00
2023-04-18T12:08:09.895Z,698.00
2023-04-18T12:09:08.826Z,686.00
2023-04-18T12:10:08.816Z,683.00
2023-04-18T12:11:08.824Z,685.00
2023-04-18T12:12:09.817Z,681.00
2023-04-18T12:13:09.816Z,683.00
2023-04-18T12:14:09.810Z,675.00
2023-04-18T12:15:09.800Z,669.00
2023-04-18T12:16:09.869Z,663.00
2023-04-18T12:17:09.797Z,661.00
2023-04-18T12:18:09.877Z,657.00
2023-04-18T12:19:09.757Z,657.00
2023-04-18T12:20:09.779Z,647.00